sensor_id;sensor_type;location;lat;lon;timestamp;pressure;altitude;pressure_sealevel;temperature;humidity
75063;BME280;63981;51.052;13.754;2023-03-11T00:01:00;97937.56;;;4.78;74.08
75063;BME280;63981;51.052;13.754;2023-03-11T00:03:26;97898.13;;;3.93;75.67
75063;BME280;63981;51.052;13.754;2023-03-11T00:05:54;97983.00;;;4.64;73.15
75063;BME280;63981;51.052;13.754;2023-03-11T00:08:22;97987.56;;;3.93;74.92
75063;BME280;63981;51.052;13.754;2023-03-11T00:10:53;97988.88;;;4.10;74.51
75063;BME280;63981;51.052;13.754;2023-03-11T00:13:20;97998.34;;;4.00;75.13
75063;BME280;63981;51.052;13.754;2023-03-11T00:15:48;97990.88;;;3.95;75.58
75063;BME280;63981;51.052;13.754;2023-03-11T00:18:15;97985.41;;;3.87;76.32
75063;BME280;63981;51.052;13.754;2023-03-11T00:20:43;98010.63;;;3.51;77.69
75063;BME280;63981;51.052;13.754;2023-03-11T00:23:11;98025.22;;;3.54;77.80
75063;BME280;63981;51.052;13.754;2023-03-11T00:25:37;98000.03;;;3.66;77.07
75063;BME280;63981;51.052;13.754;2023-03-11T00:28:05;98009.28;;;3.70;76.61
75063;BME280;63981;51.052;13.754;2023-03-11T00:30:32;98013.13;;;3.53;77.94
75063;BME280;63981;51.052;13.754;2023-03-11T00:32:58;98018.50;;;3.39;77.75
75063;BME280;63981;51.052;13.754;2023-03-11T00:35:27;98033.28;;;3.62;78.10
75063;BME280;63981;51.052;13.754;2023-03-11T00:37:55;97989.34;;;3.34;78.80
75063;BME280;63981;51.052;13.754;2023-03-11T00:40:22;98026.03;;;3.31;79.10
75063;BME280;63981;51.052;13.754;2023-03-11T00:42:48;98034.03;;;3.40;78.54
75063;BME280;63981;51.052;13.754;2023-03-11T00:45:14;98040.94;;;2.92;80.20
75063;BME280;63981;51.052;13.754;2023-03-11T00:47:41;97970.59;;;2.81;79.73
75063;BME280;63981;51.052;13.754;2023-03-11T00:50:08;97985.63;;;2.64;80.32
75063;BME280;63981;51.052;13.754;2023-03-11T00:52:36;98030.06;;;2.74;80.50
75063;BME280;63981;51.052;13.754;2023-03-11T00:55:04;98064.97;;;2.95;81.54
75063;BME280;63981;51.052;13.754;2023-03-11T00:57:31;98068.53;;;2.69;81.69
75063;BME280;63981;51.052;13.754;2023-03-11T00:59:58;98089.22;;;2.83;81.86
75063;BME280;63981;51.052;13.754;2023-03-11T01:02:24;98077.47;;;2.90;81.52
75063;BME280;63981;51.052;13.754;2023-03-11T01:04:54;98077.59;;;2.89;81.59
75063;BME280;63981;51.052;13.754;2023-03-11T01:07:20;98065.66;;;2.35;82.40
75063;BME280;63981;51.052;13.754;2023-03-11T01:09:46;98112.47;;;2.74;82.75
75063;BME280;63981;51.052;13.754;2023-03-11T01:12:12;98107.97;;;2.63;81.97
75063;BME280;63981;51.052;13.754;2023-03-11T01:14:38;98123.16;;;2.69;82.31
75063;BME280;63981;51.052;13.754;2023-03-11T01:17:03;98110.03;;;2.71;82.31
75063;BME280;63981;51.052;13.754;2023-03-11T01:19:29;98130.13;;;2.69;82.09
75063;BME280;63981;51.052;13.754;2023-03-11T01:21:55;98101.00;;;2.51;81.72
75063;BME280;63981;51.052;13.754;2023-03-11T01:24:20;98122.94;;;2.59;82.15
75063;BME280;63981;51.052;13.754;2023-03-11T01:26:46;98108.47;;;2.43;81.58
75063;BME280;63981;51.052;13.754;2023-03-11T01:29:12;98142.19;;;2.57;81.48
75063;BME280;63981;51.052;13.754;2023-03-11T01:31:37;98148.56;;;2.65;80.38
75063;BME280;63981;51.052;13.754;2023-03-11T01:34:03;98155.50;;;2.52;80.57
75063;BME280;63981;51.052;13.754;2023-03-11T01:36:29;98154.78;;;2.63;81.01
75063;BME280;63981;51.052;13.754;2023-03-11T01:38:56;98166.53;;;2.69;79.56
75063;BME280;63981;51.052;13.754;2023-03-11T01:41:21;98168.91;;;2.46;80.44
75063;BME280;63981;51.052;13.754;2023-03-11T01:43:50;98167.69;;;2.64;79.62
75063;BME280;63981;51.052;13.754;2023-03-11T01:49:16;98177.75;;;2.56;79.64
75063;BME280;63981;51.052;13.754;2023-03-11T01:51:48;98172.84;;;2.39;78.88
75063;BME280;63981;51.052;13.754;2023-03-11T01:54:20;98196.94;;;2.68;79.56
75063;BME280;63981;51.052;13.754;2023-03-11T01:56:49;98148.13;;;2.06;79.88
75063;BME280;63981;51.052;13.754;2023-03-11T01:59:18;98207.06;;;2.46;80.72
75063;BME280;63981;51.052;13.754;2023-03-11T02:02:07;98188.72;;;2.22;80.40
75063;BME280;63981;51.052;13.754;2023-03-11T02:04:35;98182.69;;;2.34;79.52
75063;BME280;63981;51.052;13.754;2023-03-11T02:07:08;98196.66;;;2.46;79.40
75063;BME280;63981;51.052;13.754;2023-03-11T02:09:34;98138.38;;;2.10;79.89
75063;BME280;63981;51.052;13.754;2023-03-11T02:12:01;98171.16;;;2.25;79.12
75063;BME280;63981;51.052;13.754;2023-03-11T02:14:29;98123.06;;;2.05;80.07
75063;BME280;63981;51.052;13.754;2023-03-11T02:16:56;98129.41;;;2.01;79.42
75063;BME280;63981;51.052;13.754;2023-03-11T02:19:42;98233.19;;;2.44;78.72
75063;BME280;63981;51.052;13.754;2023-03-11T02:22:12;98238.44;;;2.70;78.55
75063;BME280;63981;51.052;13.754;2023-03-11T02:25:03;98233.22;;;2.57;79.48
75063;BME280;63981;51.052;13.754;2023-03-11T02:27:33;98241.38;;;2.38;79.72
75063;BME280;63981;51.052;13.754;2023-03-11T02:30:03;98221.53;;;2.37;78.58
75063;BME280;63981;51.052;13.754;2023-03-11T02:32:33;98263.06;;;2.51;79.62
75063;BME280;63981;51.052;13.754;2023-03-11T02:34:59;98234.69;;;2.07;79.83
75063;BME280;63981;51.052;13.754;2023-03-11T02:37:25;98241.63;;;2.21;79.04
75063;BME280;63981;51.052;13.754;2023-03-11T02:42:50;98289.66;;;2.42;79.24
75063;BME280;63981;51.052;13.754;2023-03-11T02:45:19;98292.19;;;2.29;78.95
75063;BME280;63981;51.052;13.754;2023-03-11T02:47:47;98294.53;;;2.47;79.37
75063;BME280;63981;51.052;13.754;2023-03-11T02:50:15;98309.09;;;2.36;79.08
75063;BME280;63981;51.052;13.754;2023-03-11T02:52:43;98276.84;;;2.12;79.04
75063;BME280;63981;51.052;13.754;2023-03-11T02:55:10;98326.56;;;2.20;79.79
75063;BME280;63981;51.052;13.754;2023-03-11T02:57:37;98336.38;;;2.29;80.00
75063;BME280;63981;51.052;13.754;2023-03-11T03:00:05;98335.31;;;2.46;80.10
75063;BME280;63981;51.052;13.754;2023-03-11T03:02:39;98289.50;;;1.90;80.46
75063;BME280;63981;51.052;13.754;2023-03-11T03:05:05;98368.22;;;2.33;80.44
75063;BME280;63981;51.052;13.754;2023-03-11T03:07:34;98333.75;;;2.02;81.12
75063;BME280;63981;51.052;13.754;2023-03-11T03:10:00;98369.81;;;2.21;81.46
75063;BME280;63981;51.052;13.754;2023-03-11T03:12:26;98375.41;;;2.15;81.70
75063;BME280;63981;51.052;13.754;2023-03-11T03:14:51;98381.06;;;2.07;81.11
75063;BME280;63981;51.052;13.754;2023-03-11T03:17:17;98247.41;;;1.28;82.96
75063;BME280;63981;51.052;13.754;2023-03-11T03:19:45;98380.59;;;2.01;82.04
75063;BME280;63981;51.052;13.754;2023-03-11T03:22:11;98384.41;;;1.81;82.50
75063;BME280;63981;51.052;13.754;2023-03-11T03:24:39;98405.75;;;2.00;82.65
75063;BME280;63981;51.052;13.754;2023-03-11T03:27:05;98429.03;;;2.02;82.58
75063;BME280;63981;51.052;13.754;2023-03-11T03:29:31;98404.41;;;1.65;82.40
75063;BME280;63981;51.052;13.754;2023-03-11T03:31:56;98394.94;;;1.50;84.37
75063;BME280;63981;51.052;13.754;2023-03-11T03:34:22;98414.59;;;1.54;84.89
75063;BME280;63981;51.052;13.754;2023-03-11T03:36:48;98442.31;;;1.83;83.87
75063;BME280;63981;51.052;13.754;2023-03-11T03:39:15;98464.16;;;1.65;84.99
75063;BME280;63981;51.052;13.754;2023-03-11T03:41:43;98481.34;;;1.82;84.96
75063;BME280;63981;51.052;13.754;2023-03-11T03:44:09;98439.97;;;1.34;84.56
75063;BME280;63981;51.052;13.754;2023-03-11T03:46:35;98425.03;;;1.38;85.41
75063;BME280;63981;51.052;13.754;2023-03-11T03:49:04;98498.31;;;1.73;85.11
75063;BME280;63981;51.052;13.754;2023-03-11T03:51:31;98462.00;;;1.27;86.01
75063;BME280;63981;51.052;13.754;2023-03-11T03:54:10;98518.34;;;1.71;85.08
75063;BME280;63981;51.052;13.754;2023-03-11T03:56:36;98519.44;;;1.67;86.57
75063;BME280;63981;51.052;13.754;2023-03-11T03:59:02;98520.75;;;1.44;85.40
75063;BME280;63981;51.052;13.754;2023-03-11T04:01:34;98544.41;;;1.54;86.62
75063;BME280;63981;51.052;13.754;2023-03-11T04:04:00;98542.81;;;1.67;85.90
75063;BME280;63981;51.052;13.754;2023-03-11T04:06:27;98531.06;;;1.45;84.18
75063;BME280;63981;51.052;13.754;2023-03-11T04:09:04;98591.75;;;1.59;85.61
75063;BME280;63981;51.052;13.754;2023-03-11T04:11:32;98579.06;;;1.68;86.09
75063;BME280;63981;51.052;13.754;2023-03-11T04:13:59;98564.56;;;1.34;85.76
75063;BME280;63981;51.052;13.754;2023-03-11T04:16:27;98564.72;;;1.47;85.88
75063;BME280;63981;51.052;13.754;2023-03-11T04:18:58;98600.47;;;1.58;86.28
75063;BME280;63981;51.052;13.754;2023-03-11T04:21:24;98600.19;;;1.62;84.56
75063;BME280;63981;51.052;13.754;2023-03-11T04:23:50;98570.91;;;1.29;85.31
75063;BME280;63981;51.052;13.754;2023-03-11T04:26:19;98625.09;;;1.19;85.40
75063;BME280;63981;51.052;13.754;2023-03-11T04:28:45;98618.72;;;1.40;85.50
75063;BME280;63981;51.052;13.754;2023-03-11T04:31:11;98562.88;;;1.02;86.90
75063;BME280;63981;51.052;13.754;2023-03-11T04:33:37;98635.72;;;1.46;87.19
75063;BME280;63981;51.052;13.754;2023-03-11T04:36:06;98655.16;;;1.39;86.17
75063;BME280;63981;51.052;13.754;2023-03-11T04:38:34;98645.53;;;1.57;86.02
75063;BME280;63981;51.052;13.754;2023-03-11T04:41:01;98652.72;;;1.36;86.22
75063;BME280;63981;51.052;13.754;2023-03-11T04:43:27;98634.03;;;1.29;87.30
75063;BME280;63981;51.052;13.754;2023-03-11T04:45:53;98665.78;;;1.34;86.07
75063;BME280;63981;51.052;13.754;2023-03-11T04:48:19;98630.31;;;1.02;86.40
75063;BME280;63981;51.052;13.754;2023-03-11T04:50:45;98611.31;;;0.85;86.72
75063;BME280;63981;51.052;13.754;2023-03-11T04:53:10;98677.41;;;1.27;86.81
75063;BME280;63981;51.052;13.754;2023-03-11T04:55:36;98563.66;;;0.55;87.33
75063;BME280;63981;51.052;13.754;2023-03-11T04:58:04;98692.47;;;1.21;86.73
75063;BME280;63981;51.052;13.754;2023-03-11T05:00:31;98703.63;;;1.38;87.49
75063;BME280;63981;51.052;13.754;2023-03-11T05:03:03;98700.84;;;1.26;87.97
75063;BME280;63981;51.052;13.754;2023-03-11T05:05:30;98675.34;;;1.01;87.38
75063;BME280;63981;51.052;13.754;2023-03-11T05:07:55;98654.00;;;0.96;87.23
75063;BME280;63981;51.052;13.754;2023-03-11T05:10:22;98725.41;;;1.36;86.46
75063;BME280;63981;51.052;13.754;2023-03-11T05:12:50;98742.91;;;1.32;87.07
75063;BME280;63981;51.052;13.754;2023-03-11T05:15:17;98714.28;;;1.34;86.81
75063;BME280;63981;51.052;13.754;2023-03-11T05:17:44;98651.28;;;0.81;85.83
75063;BME280;63981;51.052;13.754;2023-03-11T05:20:10;98752.00;;;1.24;87.65
75063;BME280;63981;51.052;13.754;2023-03-11T05:22:37;98775.66;;;1.35;87.24
75063;BME280;63981;51.052;13.754;2023-03-11T05:25:04;98783.00;;;1.42;86.03
75063;BME280;63981;51.052;13.754;2023-03-11T05:27:30;98720.53;;;0.97;86.91
75063;BME280;63981;51.052;13.754;2023-03-11T05:29:56;98769.56;;;1.52;85.26
75063;BME280;63981;51.052;13.754;2023-03-11T05:32:23;98793.41;;;1.42;87.21
75063;BME280;63981;51.052;13.754;2023-03-11T05:34:50;98737.31;;;1.07;85.88
75063;BME280;63981;51.052;13.754;2023-03-11T05:37:17;98802.91;;;1.43;85.45
75063;BME280;63981;51.052;13.754;2023-03-11T05:39:44;98753.28;;;1.32;84.36
75063;BME280;63981;51.052;13.754;2023-03-11T05:42:11;98819.44;;;1.58;84.80
75063;BME280;63981;51.052;13.754;2023-03-11T05:44:38;98786.56;;;1.24;84.98
75063;BME280;63981;51.052;13.754;2023-03-11T05:47:04;98818.69;;;1.39;84.65
75063;BME280;63981;51.052;13.754;2023-03-11T05:49:31;98830.03;;;1.21;84.11
75063;BME280;63981;51.052;13.754;2023-03-11T05:51:56;98847.28;;;1.55;85.66
75063;BME280;63981;51.052;13.754;2023-03-11T05:54:24;98832.50;;;1.39;84.12
75063;BME280;63981;51.052;13.754;2023-03-11T05:56:51;98859.94;;;1.45;83.10
75063;BME280;63981;51.052;13.754;2023-03-11T05:59:18;98764.47;;;1.00;82.86
75063;BME280;63981;51.052;13.754;2023-03-11T06:01:47;98861.53;;;1.47;82.91
75063;BME280;63981;51.052;13.754;2023-03-11T06:04:13;98871.50;;;1.55;83.06
75063;BME280;63981;51.052;13.754;2023-03-11T06:06:40;98870.78;;;1.69;82.92
75063;BME280;63981;51.052;13.754;2023-03-11T06:09:10;98873.38;;;1.69;82.81
75063;BME280;63981;51.052;13.754;2023-03-11T06:11:35;98891.09;;;1.45;81.70
75063;BME280;63981;51.052;13.754;2023-03-11T06:14:01;98903.13;;;1.63;82.86
75063;BME280;63981;51.052;13.754;2023-03-11T06:16:27;98828.56;;;0.98;83.05
75063;BME280;63981;51.052;13.754;2023-03-11T06:18:57;98897.78;;;1.49;82.37
75063;BME280;63981;51.052;13.754;2023-03-11T06:21:27;98850.94;;;1.17;82.12
75063;BME280;63981;51.052;13.754;2023-03-11T06:23:52;98926.50;;;1.63;82.10
75063;BME280;63981;51.052;13.754;2023-03-11T06:26:20;98931.41;;;1.69;83.05
75063;BME280;63981;51.052;13.754;2023-03-11T06:28:47;98929.25;;;1.60;83.68
75063;BME280;63981;51.052;13.754;2023-03-11T06:31:22;98947.03;;;1.85;81.80
75063;BME280;63981;51.052;13.754;2023-03-11T06:33:55;98891.00;;;1.29;80.99
75063;BME280;63981;51.052;13.754;2023-03-11T06:36:21;98964.00;;;1.75;81.92
75063;BME280;63981;51.052;13.754;2023-03-11T06:38:53;98969.34;;;1.89;81.22
75063;BME280;63981;51.052;13.754;2023-03-11T06:41:21;98977.28;;;1.86;82.22
75063;BME280;63981;51.052;13.754;2023-03-11T06:43:46;98976.41;;;1.70;81.61
75063;BME280;63981;51.052;13.754;2023-03-11T06:46:20;98986.75;;;1.87;81.66
75063;BME280;63981;51.052;13.754;2023-03-11T06:48:47;98999.22;;;1.98;81.13
75063;BME280;63981;51.052;13.754;2023-03-11T06:51:17;98981.47;;;1.54;80.52
75063;BME280;63981;51.052;13.754;2023-03-11T06:53:47;99013.25;;;1.94;81.45
75063;BME280;63981;51.052;13.754;2023-03-11T06:56:13;99013.81;;;1.66;81.90
75063;BME280;63981;51.052;13.754;2023-03-11T06:58:47;99013.97;;;1.80;81.45
75063;BME280;63981;51.052;13.754;2023-03-11T07:01:18;99020.22;;;1.76;82.19
75063;BME280;63981;51.052;13.754;2023-03-11T07:03:46;99012.34;;;1.77;81.08
75063;BME280;63981;51.052;13.754;2023-03-11T07:06:14;98858.88;;;0.61;80.84
75063;BME280;63981;51.052;13.754;2023-03-11T07:08:41;99006.31;;;1.77;80.47
75063;BME280;63981;51.052;13.754;2023-03-11T07:11:10;98973.34;;;1.44;81.11
75063;BME280;63981;51.052;13.754;2023-03-11T07:13:37;99062.34;;;2.00;80.85
75063;BME280;63981;51.052;13.754;2023-03-11T07:16:06;99072.97;;;1.95;79.91
75063;BME280;63981;51.052;13.754;2023-03-11T07:18:33;99038.78;;;1.68;80.80
75063;BME280;63981;51.052;13.754;2023-03-11T07:21:02;98991.25;;;1.32;80.99
75063;BME280;63981;51.052;13.754;2023-03-11T07:23:28;99091.31;;;2.10;81.31
75063;BME280;63981;51.052;13.754;2023-03-11T07:25:54;99104.31;;;2.10;79.71
75063;BME280;63981;51.052;13.754;2023-03-11T07:28:22;99090.78;;;2.03;80.61
75063;BME280;63981;51.052;13.754;2023-03-11T07:30:48;99111.50;;;2.04;79.57
75063;BME280;63981;51.052;13.754;2023-03-11T07:33:14;99114.84;;;2.06;80.38
75063;BME280;63981;51.052;13.754;2023-03-11T07:35:40;99120.59;;;2.13;80.66
75063;BME280;63981;51.052;13.754;2023-03-11T07:38:06;99130.22;;;2.11;80.51
75063;BME280;63981;51.052;13.754;2023-03-11T07:40:33;99055.28;;;1.67;80.54
75063;BME280;63981;51.052;13.754;2023-03-11T07:42:59;99133.59;;;2.13;80.96
75063;BME280;63981;51.052;13.754;2023-03-11T07:45:24;99063.13;;;1.48;81.40
75063;BME280;63981;51.052;13.754;2023-03-11T07:47:50;99150.03;;;2.14;78.98
75063;BME280;63981;51.052;13.754;2023-03-11T07:50:16;99119.03;;;1.92;80.33
75063;BME280;63981;51.052;13.754;2023-03-11T07:52:42;99147.47;;;1.95;80.56
75063;BME280;63981;51.052;13.754;2023-03-11T07:55:08;99090.13;;;1.63;79.54
75063;BME280;63981;51.052;13.754;2023-03-11T07:57:34;99120.38;;;1.82;79.92
75063;BME280;63981;51.052;13.754;2023-03-11T08:00:00;99012.41;;;1.05;79.62
75063;BME280;63981;51.052;13.754;2023-03-11T08:02:26;99191.59;;;1.96;80.08
75063;BME280;63981;51.052;13.754;2023-03-11T08:04:52;99144.59;;;1.65;80.05
75063;BME280;63981;51.052;13.754;2023-03-11T08:07:17;99200.69;;;2.05;79.61
75063;BME280;63981;51.052;13.754;2023-03-11T08:09:45;99216.94;;;1.91;80.49
75063;BME280;63981;51.052;13.754;2023-03-11T08:12:11;99081.84;;;1.19;80.11
75063;BME280;63981;51.052;13.754;2023-03-11T08:14:36;99200.94;;;1.82;79.75
75063;BME280;63981;51.052;13.754;2023-03-11T08:17:04;99218.50;;;1.95;80.73
75063;BME280;63981;51.052;13.754;2023-03-11T08:19:30;99226.16;;;1.98;81.31
75063;BME280;63981;51.052;13.754;2023-03-11T08:21:56;99230.34;;;2.01;79.96
75063;BME280;63981;51.052;13.754;2023-03-11T08:24:21;99236.13;;;1.89;79.34
75063;BME280;63981;51.052;13.754;2023-03-11T08:26:47;99158.22;;;1.70;79.30
75063;BME280;63981;51.052;13.754;2023-03-11T08:29:13;99236.31;;;2.39;79.28
75063;BME280;63981;51.052;13.754;2023-03-11T08:31:39;99183.31;;;1.88;79.66
75063;BME280;63981;51.052;13.754;2023-03-11T08:34:08;99195.50;;;2.05;78.90
75063;BME280;63981;51.052;13.754;2023-03-11T08:36:34;99249.00;;;2.28;78.91
75063;BME280;63981;51.052;13.754;2023-03-11T08:39:00;99239.84;;;2.38;78.57
75063;BME280;63981;51.052;13.754;2023-03-11T08:41:26;99272.97;;;2.52;78.10
75063;BME280;63981;51.052;13.754;2023-03-11T08:43:52;99276.91;;;2.60;78.06
75063;BME280;63981;51.052;13.754;2023-03-11T08:46:27;99281.13;;;2.44;78.63
75063;BME280;63981;51.052;13.754;2023-03-11T08:48:54;99276.41;;;2.35;78.68
75063;BME280;63981;51.052;13.754;2023-03-11T08:51:21;99207.84;;;1.83;78.58
75063;BME280;63981;51.052;13.754;2023-03-11T08:53:48;99244.09;;;2.03;78.51
75063;BME280;63981;51.052;13.754;2023-03-11T08:56:14;99289.56;;;2.49;78.07
75063;BME280;63981;51.052;13.754;2023-03-11T08:58:40;99302.34;;;2.54;78.44
75063;BME280;63981;51.052;13.754;2023-03-11T09:01:06;99248.91;;;2.29;77.67
75063;BME280;63981;51.052;13.754;2023-03-11T09:03:34;99266.84;;;2.17;77.21
75063;BME280;63981;51.052;13.754;2023-03-11T09:06:02;99310.63;;;2.62;76.90
75063;BME280;63981;51.052;13.754;2023-03-11T09:08:29;99320.88;;;2.48;78.12
75063;BME280;63981;51.052;13.754;2023-03-11T09:10:54;99282.19;;;2.23;77.51
75063;BME280;63981;51.052;13.754;2023-03-11T09:13:20;99229.44;;;2.02;76.82
75063;BME280;63981;51.052;13.754;2023-03-11T09:15:51;99252.06;;;1.81;77.61
75063;BME280;63981;51.052;13.754;2023-03-11T09:18:18;99241.38;;;1.68;78.09
75063;BME280;63981;51.052;13.754;2023-03-11T09:20:44;99301.88;;;2.10;77.97
75063;BME280;63981;51.052;13.754;2023-03-11T09:23:12;99349.13;;;1.99;77.92
75063;BME280;63981;51.052;13.754;2023-03-11T09:25:39;99290.56;;;1.53;79.75
75063;BME280;63981;51.052;13.754;2023-03-11T09:28:05;99347.38;;;1.99;80.00
75063;BME280;63981;51.052;13.754;2023-03-11T09:30:31;99310.66;;;1.68;79.52
75063;BME280;63981;51.052;13.754;2023-03-11T09:32:57;99363.59;;;2.04;79.41
75063;BME280;63981;51.052;13.754;2023-03-11T09:35:23;99371.44;;;1.84;80.01
75063;BME280;63981;51.052;13.754;2023-03-11T09:37:50;99366.31;;;1.83;80.75
75063;BME280;63981;51.052;13.754;2023-03-11T09:40:19;99363.84;;;1.80;79.93
75063;BME280;63981;51.052;13.754;2023-03-11T09:45:20;99396.28;;;2.10;80.55
75063;BME280;63981;51.052;13.754;2023-03-11T09:50:57;99401.47;;;2.29;80.10
75063;BME280;63981;51.052;13.754;2023-03-11T09:53:40;99401.41;;;2.49;78.93
75063;BME280;63981;51.052;13.754;2023-03-11T09:56:10;99407.59;;;2.47;78.72
75063;BME280;63981;51.052;13.754;2023-03-11T09:58:47;99399.66;;;2.50;78.81
75063;BME280;63981;51.052;13.754;2023-03-11T10:01:41;99409.22;;;2.49;77.89
75063;BME280;63981;51.052;13.754;2023-03-11T10:04:13;99339.38;;;2.23;77.74
75063;BME280;63981;51.052;13.754;2023-03-11T10:06:43;99356.47;;;2.46;76.84
75063;BME280;63981;51.052;13.754;2023-03-11T10:25:35;99437.66;;;3.61;74.72
75063;BME280;63981;51.052;13.754;2023-03-11T10:45:40;99457.03;;;4.56;70.50
75063;BME280;63981;51.052;13.754;2023-03-11T10:48:28;99455.84;;;4.77;70.20
75063;BME280;63981;51.052;13.754;2023-03-11T10:51:21;99439.59;;;5.03;68.76
75063;BME280;63981;51.052;13.754;2023-03-11T10:54:05;99459.28;;;5.55;66.63
75063;BME280;63981;51.052;13.754;2023-03-11T10:56:57;99453.66;;;5.77;66.52
75063;BME280;63981;51.052;13.754;2023-03-11T10:59:47;99475.22;;;5.66;65.03
75063;BME280;63981;51.052;13.754;2023-03-11T11:02:49;99407.84;;;4.48;65.75
75063;BME280;63981;51.052;13.754;2023-03-11T11:05:34;99481.47;;;4.37;67.99
75063;BME280;63981;51.052;13.754;2023-03-11T11:08:19;99479.44;;;4.27;67.66
75063;BME280;63981;51.052;13.754;2023-03-11T11:11:20;99451.31;;;3.66;68.95
75063;BME280;63981;51.052;13.754;2023-03-11T11:14:05;99510.56;;;3.79;68.79
75063;BME280;63981;51.052;13.754;2023-03-11T11:16:50;99508.25;;;3.20;71.50
75063;BME280;63981;51.052;13.754;2023-03-11T11:19:42;99509.50;;;3.11;72.02
75063;BME280;63981;51.052;13.754;2023-03-11T11:22:27;99500.16;;;3.07;72.44
75063;BME280;63981;51.052;13.754;2023-03-11T11:25:29;99508.81;;;3.08;73.85
75063;BME280;63981;51.052;13.754;2023-03-11T11:28:19;99434.41;;;3.04;72.38
75063;BME280;63981;51.052;13.754;2023-03-11T11:31:07;99506.41;;;3.93;70.74
75063;BME280;63981;51.052;13.754;2023-03-11T11:34:02;99401.41;;;3.21;70.69
75063;BME280;63981;51.052;13.754;2023-03-11T11:36:46;99463.00;;;3.74;69.92
75063;BME280;63981;51.052;13.754;2023-03-11T11:39:38;99510.22;;;4.20;69.27
75063;BME280;63981;51.052;13.754;2023-03-11T11:42:27;99505.94;;;4.19;70.38
75063;BME280;63981;51.052;13.754;2023-03-11T11:45:33;99507.97;;;4.79;67.47
75063;BME280;63981;51.052;13.754;2023-03-11T11:51:30;99486.38;;;8.93;56.69
75063;BME280;63981;51.052;13.754;2023-03-11T11:57:12;99484.91;;;12.47;47.58
75063;BME280;63981;51.052;13.754;2023-03-11T11:59:57;99483.97;;;12.06;46.03
75063;BME280;63981;51.052;13.754;2023-03-11T12:06:08;99484.19;;;7.73;54.60
75063;BME280;63981;51.052;13.754;2023-03-11T12:17:55;99461.25;;;5.21;60.26
75063;BME280;63981;51.052;13.754;2023-03-11T12:20:53;99495.28;;;4.72;60.01
75063;BME280;63981;51.052;13.754;2023-03-11T12:26:46;99532.06;;;4.35;62.20
75063;BME280;63981;51.052;13.754;2023-03-11T12:29:35;99539.28;;;3.61;64.87
75063;BME280;63981;51.052;13.754;2023-03-11T12:32:44;99539.59;;;3.72;65.21
75063;BME280;63981;51.052;13.754;2023-03-11T12:35:32;99542.16;;;3.91;65.13
75063;BME280;63981;51.052;13.754;2023-03-11T12:38:31;99537.31;;;4.00;64.05
75063;BME280;63981;51.052;13.754;2023-03-11T12:41:32;99538.75;;;3.89;64.63
75063;BME280;63981;51.052;13.754;2023-03-11T12:44:25;99536.84;;;3.75;63.72
75063;BME280;63981;51.052;13.754;2023-03-11T12:50:35;99551.50;;;3.41;66.09
75063;BME280;63981;51.052;13.754;2023-03-11T12:52:59;99467.72;;;3.14;66.39
75063;BME280;63981;51.052;13.754;2023-03-11T13:08:45;99509.81;;;2.67;70.41
75063;BME280;63981;51.052;13.754;2023-03-11T13:14:22;99581.66;;;3.09;70.99
75063;BME280;63981;51.052;13.754;2023-03-11T13:17:24;99519.41;;;3.41;70.61
75063;BME280;63981;51.052;13.754;2023-03-11T13:38:38;99595.66;;;3.98;68.11
75063;BME280;63981;51.052;13.754;2023-03-11T13:41:30;99575.00;;;11.59;51.74
75063;BME280;63981;51.052;13.754;2023-03-11T13:44:25;99532.44;;;11.52;45.73
75063;BME280;63981;51.052;13.754;2023-03-11T13:47:15;99599.91;;;7.13;53.50
75063;BME280;63981;51.052;13.754;2023-03-11T13:50:05;99569.75;;;5.74;58.89
75063;BME280;63981;51.052;13.754;2023-03-11T13:52:52;99606.19;;;5.30;59.74
75063;BME280;63981;51.052;13.754;2023-03-11T13:55:40;99626.94;;;4.84;63.29
75063;BME280;63981;51.052;13.754;2023-03-11T13:58:27;99632.56;;;4.59;64.42
75063;BME280;63981;51.052;13.754;2023-03-11T14:01:16;99603.66;;;4.80;63.48
75063;BME280;63981;51.052;13.754;2023-03-11T14:22:36;99646.91;;;4.68;60.33
75063;BME280;63981;51.052;13.754;2023-03-11T14:25:07;99645.75;;;5.07;59.39
75063;BME280;63981;51.052;13.754;2023-03-11T14:27:36;99653.88;;;4.67;58.42
75063;BME280;63981;51.052;13.754;2023-03-11T14:30:03;99653.00;;;4.51;60.45
75063;BME280;63981;51.052;13.754;2023-03-11T14:32:31;99657.44;;;4.84;59.63
75063;BME280;63981;51.052;13.754;2023-03-11T14:34:58;99643.03;;;8.31;54.02
75063;BME280;63981;51.052;13.754;2023-03-11T14:39:57;99660.91;;;6.86;54.01
75063;BME280;63981;51.052;13.754;2023-03-11T14:42:26;99662.03;;;5.60;57.52
75063;BME280;63981;51.052;13.754;2023-03-11T14:45:01;99662.59;;;5.81;57.40
75063;BME280;63981;51.052;13.754;2023-03-11T14:49:58;99675.84;;;4.81;59.25
75063;BME280;63981;51.052;13.754;2023-03-11T14:52:35;99680.72;;;4.71;59.71
75063;BME280;63981;51.052;13.754;2023-03-11T14:55:11;99665.94;;;4.87;60.01
75063;BME280;63981;51.052;13.754;2023-03-11T15:00:21;99696.50;;;4.85;61.71
75063;BME280;63981;51.052;13.754;2023-03-11T15:03:01;99694.72;;;4.68;59.66
75063;BME280;63981;51.052;13.754;2023-03-11T15:08:47;99658.06;;;4.20;60.50
75063;BME280;63981;51.052;13.754;2023-03-11T15:13:43;99712.31;;;3.94;60.85
75063;BME280;63981;51.052;13.754;2023-03-11T15:16:32;99713.44;;;3.89;61.05
75063;BME280;63981;51.052;13.754;2023-03-11T15:19:00;99710.91;;;3.49;62.44
75063;BME280;63981;51.052;13.754;2023-03-11T15:21:27;99724.88;;;3.67;61.49
75063;BME280;63981;51.052;13.754;2023-03-11T15:23:59;99730.50;;;3.96;61.50
75063;BME280;63981;51.052;13.754;2023-03-11T15:26:29;99725.41;;;4.29;61.33
75063;BME280;63981;51.052;13.754;2023-03-11T15:29:01;99727.97;;;4.30;59.54
75063;BME280;63981;51.052;13.754;2023-03-11T15:31:34;99743.19;;;3.84;61.23
75063;BME280;63981;51.052;13.754;2023-03-11T15:36:36;99739.84;;;4.00;60.40
75063;BME280;63981;51.052;13.754;2023-03-11T15:41:46;99746.81;;;3.99;58.96
75063;BME280;63981;51.052;13.754;2023-03-11T15:47:19;99760.22;;;3.73;59.63